Time,TemperatureF,DewpointF,PressureIn,WindDirection,WindDirectionDegrees,WindSpeedMPH,WindSpeedGustMPH,Humidity,HourlyPrecipIn,Conditions,Clouds,dailyrainin,SolarRadiationWatts/m^2,SoftwareType,DateUTC
2013-03-24 00:00:00,48.9,47.3,29.87,NE,44,0.0,2.0,94,0.00,,,0.35,0.0,meteohub,2013-03-24 04:00:00,
2013-03-24 00:05:00,48.9,47.3,29.86,NE,44,0.0,1.0,94,0.00,,,0.00,0.0,meteohub,2013-03-24 04:05:00,
2013-03-24 00:10:00,49.1,47.5,29.87,NE,44,1.0,1.0,94,0.00,,,0.00,0.0,meteohub,2013-03-24 04:10:00,
2013-03-24 00:15:00,49.3,47.7,29.87,NE,44,0.0,1.0,94,0.00,,,0.00,0.0,meteohub,2013-03-24 04:15:00,
2013-03-24 00:20:00,49.3,47.7,29.87,NE,36,0.0,2.0,94,0.00,,,0.00,0.0,meteohub,2013-03-24 04:20:00,
2013-03-24 00:25:00,49.5,47.8,29.87,NE,43,1.0,3.0,94,0.00,,,0.00,0.0,meteohub,2013-03-24 04:25:00,
2013-03-24 00:30:00,49.5,47.8,29.87,NE,43,0.0,3.0,94,0.00,,,0.00,0.0,meteohub,2013-03-24 04:30:00,
2013-03-24 00:35:00,49.5,47.5,29.86,NE,43,0.0,3.0,93,0.00,,,0.00,0.0,meteohub,2013-03-24 04:35:00,
2013-03-24 00:40:00,49.5,47.5,29.85,NE,48,1.0,2.0,93,0.00,,,0.00,0.0,meteohub,2013-03-24 04:40:00,
2013-03-24 00:45:00,49.5,47.5,29.85,NE,55,0.0,2.0,93,0.00,,,0.00,0.0,meteohub,2013-03-24 04:45:00,
2013-03-24 00:50:00,49.5,47.8,29.84,NE,48,0.0,2.0,94,0.00,,,0.00,0.0,meteohub,2013-03-24 04:50:00,
2013-03-24 00:55:00,49.5,47.8,29.84,NE,44,2.0,3.0,94,0.00,,,0.00,0.0,meteohub,2013-03-24 04:55:00,
2013-03-24 01:00:00,49.5,47.8,29.85,NNE,13,0.0,3.0,94,0.00,,,0.00,0.0,meteohub,2013-03-24 05:00:00,
2013-03-24 01:05:00,49.6,48.0,29.84,NNE,13,0.0,3.0,94,0.00,,,0.00,0.0,meteohub,2013-03-24 05:05:00,
2013-03-24 01:10:00,49.6,48.0,29.84,NNE,15,0.0,3.0,94,0.00,,,0.00,0.0,meteohub,2013-03-24 05:10:00,
2013-03-24 01:15:00,49.6,48.0,29.84,NE,48,0.0,2.0,94,0.00,,,0.00,0.0,meteohub,2013-03-24 05:15:00,
2013-03-24 01:20:00,49.6,47.7,29.84,NW,305,0.0,3.0,93,0.00,,,0.00,0.0,meteohub,2013-03-24 05:20:00,
2013-03-24 01:25:00,49.8,47.8,29.84,NE,42,0.0,3.0,93,0.00,,,0.00,0.0,meteohub,2013-03-24 05:25:00,
2013-03-24 01:30:00,49.8,47.8,29.84,NE,42,0.0,3.0,93,0.00,,,0.00,0.0,meteohub,2013-03-24 05:30:00,
2013-03-24 01:35:00,50.0,48.0,29.83,NNE,21,0.0,3.0,93,0.00,,,0.00,0.0,meteohub,2013-03-24 05:35:00,
2013-03-24 01:41:00,50.0,48.0,29.83,NNE,21,0.0,1.0,93,0.00,,,0.00,0.0,meteohub,2013-03-24 05:41:00,
2013-03-24 01:46:00,50.2,48.2,29.83,NNE,26,1.0,2.0,93,0.00,,,0.00,0.0,meteohub,2013-03-24 05:46:00,
2013-03-24 01:51:00,50.2,48.2,29.83,East,95,0.0,3.0,93,0.00,,,0.00,0.0,meteohub,2013-03-24 05:51:00,
2013-03-24 01:56:00,50.2,48.2,29.82,NE,49,0.0,3.0,93,0.00,,,0.00,0.0,meteohub,2013-03-24 05:56:00,
2013-03-24 02:01:00,50.4,48.4,29.82,ENE,59,0.0,3.0,93,0.00,,,0.00,0.0,meteohub,2013-03-24 06:01:00,
2013-03-24 02:06:00,50.4,48.4,29.81,NNE,15,0.0,4.0,93,0.00,,,0.00,0.0,meteohub,2013-03-24 06:06:00,
2013-03-24 02:11:00,50.4,48.2,29.81,ENE,61,1.0,4.0,92,0.00,,,0.00,0.0,meteohub,2013-03-24 06:11:00,
2013-03-24 02:16:00,50.4,48.4,29.81,NE,40,1.0,4.0,93,0.00,,,0.00,0.0,meteohub,2013-03-24 06:16:00,
2013-03-24 02:21:00,50.5,48.6,29.80,NE,50,2.0,4.0,93,0.01,,,0.01,0.0,meteohub,2013-03-24 06:21:00,
2013-03-24 02:26:00,50.5,48.6,29.80,ENE,63,0.0,3.0,93,0.01,,,0.01,0.0,meteohub,2013-03-24 06:26:00,
2013-03-24 02:31:00,50.5,48.6,29.80,NNE,32,0.0,3.0,93,0.01,,,0.01,0.0,meteohub,2013-03-24 06:31:00,
2013-03-24 02:36:00,50.5,48.9,29.80,ENE,72,1.0,3.0,94,0.01,,,0.01,0.0,meteohub,2013-03-24 06:36:00,
2013-03-24 02:41:00,50.5,48.9,29.76,NE,54,1.0,3.0,94,0.01,,,0.01,0.0,meteohub,2013-03-24 06:41:00,
2013-03-24 02:46:00,50.4,48.7,29.76,NE,42,4.0,4.0,94,0.02,,,0.02,0.0,meteohub,2013-03-24 06:46:00,
2013-03-24 02:51:00,50.4,48.7,29.76,NNE,31,2.0,4.0,94,0.03,,,0.02,0.0,meteohub,2013-03-24 06:51:00,
2013-03-24 02:56:00,50.4,48.9,29.76,ENE,73,1.0,6.0,95,0.03,,,0.03,0.0,meteohub,2013-03-24 06:56:00,
2013-03-24 03:01:00,50.4,48.9,29.77,North,11,0.0,6.0,95,0.03,,,0.03,0.0,meteohub,2013-03-24 07:01:00,
2013-03-24 03:07:00,50.4,48.9,29.78,NNE,14,0.0,6.0,95,0.03,,,0.03,0.0,meteohub,2013-03-24 07:07:00,
2013-03-24 03:12:00,50.5,49.1,29.78,NNE,15,0.0,3.0,95,0.03,,,0.03,0.0,meteohub,2013-03-24 07:12:00,
2013-03-24 03:17:00,50.5,49.1,29.78,NE,44,0.0,3.0,95,0.02,,,0.03,0.0,meteohub,2013-03-24 07:17:00,
2013-03-24 03:22:00,50.5,49.1,29.77,NNW,338,2.0,3.0,95,0.02,,,0.03,0.0,meteohub,2013-03-24 07:22:00,
2013-03-24 03:27:00,50.5,49.1,29.76,NE,50,2.0,4.0,95,0.03,,,0.04,0.0,meteohub,2013-03-24 07:27:00,
2013-03-24 03:32:00,50.5,49.1,29.77,NE,52,0.0,4.0,95,0.05,,,0.06,0.0,meteohub,2013-03-24 07:32:00,
2013-03-24 03:37:00,50.4,48.9,29.74,ENE,60,1.0,4.0,95,0.05,,,0.06,0.0,meteohub,2013-03-24 07:37:00,
2013-03-24 03:42:00,50.4,49.3,29.73,WSW,251,2.0,3.0,96,0.05,,,0.07,0.0,meteohub,2013-03-24 07:42:00,
2013-03-24 03:47:00,50.4,49.3,29.75,North,0,0.0,3.0,96,0.07,,,0.09,0.0,meteohub,2013-03-24 07:47:00,
2013-03-24 03:52:00,50.4,49.3,29.77,NE,43,1.0,4.0,96,0.06,,,0.09,0.0,meteohub,2013-03-24 07:52:00,
2013-03-24 03:57:00,50.5,49.5,29.77,NE,42,1.0,4.0,96,0.08,,,0.11,0.0,meteohub,2013-03-24 07:57:00,
2013-03-24 04:02:00,50.5,49.5,29.75,East,98,3.0,4.0,96,0.09,,,0.12,0.0,meteohub,2013-03-24 08:02:00,
2013-03-24 04:07:00,50.4,49.3,29.73,NW,321,1.0,5.0,96,0.14,,,0.17,0.0,meteohub,2013-03-24 08:07:00,
2013-03-24 04:12:00,50.4,49.3,29.70,NE,51,1.0,5.0,96,0.17,,,0.20,0.0,meteohub,2013-03-24 08:12:00,
2013-03-24 04:17:00,50.4,49.3,29.70,East,88,3.0,5.0,96,0.19,,,0.22,0.0,meteohub,2013-03-24 08:17:00,
2013-03-24 04:22:00,50.5,49.5,29.70,NE,52,3.0,6.0,96,0.18,,,0.22,0.0,meteohub,2013-03-24 08:22:00,
2013-03-24 04:27:00,50.5,49.5,29.69,East,82,1.0,6.0,96,0.17,,,0.22,0.0,meteohub,2013-03-24 08:27:00,
2013-03-24 04:32:00,50.7,49.6,29.68,East,80,1.0,6.0,96,0.17,,,0.23,0.0,meteohub,2013-03-24 08:32:00,
2013-03-24 04:37:00,50.7,49.8,29.68,East,80,2.0,6.0,97,0.16,,,0.23,0.0,meteohub,2013-03-24 08:37:00,
2013-03-24 04:42:00,50.9,50.0,29.68,East,85,1.0,3.0,97,0.16,,,0.23,0.0,meteohub,2013-03-24 08:42:00,
2013-03-24 04:47:00,51.1,50.0,29.66,NE,56,2.0,3.0,96,0.14,,,0.23,0.0,meteohub,2013-03-24 08:47:00,
2013-03-24 04:52:00,51.1,50.0,29.66,ESE,111,0.0,4.0,96,0.13,,,0.23,0.0,meteohub,2013-03-24 08:52:00,
2013-03-24 04:57:00,51.3,50.4,29.66,NNE,26,0.0,4.0,97,0.12,,,0.23,0.0,meteohub,2013-03-24 08:57:00,
2013-03-24 05:02:00,51.4,50.5,29.66,West,273,2.0,4.0,97,0.08,,,0.23,0.0,meteohub,2013-03-24 09:02:00,
2013-03-24 05:07:00,51.6,50.7,29.67,SSE,155,1.0,4.0,97,0.04,,,0.23,0.0,meteohub,2013-03-24 09:07:00,
2013-03-24 05:12:00,51.6,50.7,29.67,NNW,340,0.0,4.0,97,0.02,,,0.23,0.0,meteohub,2013-03-24 09:12:00,
2013-03-24 05:17:00,51.8,50.9,29.65,NNE,32,0.0,4.0,97,0.01,,,0.23,0.0,meteohub,2013-03-24 09:17:00,
2013-03-24 05:22:00,51.8,50.9,29.64,North,355,2.0,4.0,97,0.02,,,0.24,0.0,meteohub,2013-03-24 09:22:00,
2013-03-24 05:27:00,52.0,51.1,29.68,SE,138,0.0,4.0,97,0.02,,,0.25,0.0,meteohub,2013-03-24 09:27:00,
2013-03-24 05:32:00,52.2,51.3,29.67,East,91,1.0,4.0,97,0.03,,,0.26,0.0,meteohub,2013-03-24 09:32:00,
2013-03-24 05:37:00,52.3,51.4,29.62,ENE,60,1.0,4.0,97,0.05,,,0.28,0.0,meteohub,2013-03-24 09:37:00,
2013-03-24 05:42:00,52.3,51.4,29.64,NE,43,1.0,6.0,97,0.05,,,0.28,0.0,meteohub,2013-03-24 09:42:00,
2013-03-24 05:48:00,52.5,51.6,29.62,East,89,0.0,6.0,97,0.06,,,0.29,0.0,meteohub,2013-03-24 09:48:00,
2013-03-24 05:53:00,52.5,51.6,29.63,ENE,57,0.0,5.0,97,0.07,,,0.30,0.0,meteohub,2013-03-24 09:53:00,
2013-03-24 05:58:00,52.9,52.0,29.65,ESE,121,1.0,5.0,97,0.07,,,0.30,0.0,meteohub,2013-03-24 09:58:00,
2013-03-24 06:03:00,53.1,52.2,29.65,NNW,340,1.0,5.0,97,0.08,,,0.31,0.0,meteohub,2013-03-24 10:03:00,
2013-03-24 06:08:00,53.1,52.2,29.65,North,9,1.0,4.0,97,0.10,,,0.33,0.0,meteohub,2013-03-24 10:08:00,
2013-03-24 06:13:00,53.2,52.3,29.68,NW,311,3.0,4.0,97,0.10,,,0.33,0.0,meteohub,2013-03-24 10:13:00,
2013-03-24 06:18:00,53.2,52.3,29.65,NE,54,2.0,4.0,97,0.13,,,0.36,0.0,meteohub,2013-03-24 10:18:00,
2013-03-24 06:23:00,53.2,52.3,29.62,NE,56,1.0,6.0,97,0.21,,,0.45,0.0,meteohub,2013-03-24 10:23:00,
2013-03-24 06:28:00,53.1,52.2,29.64,NW,323,1.0,6.0,97,0.30,,,0.55,0.0,meteohub,2013-03-24 10:28:00,
2013-03-24 06:33:00,53.1,52.2,29.62,NE,41,2.0,6.0,97,0.35,,,0.62,0.0,meteohub,2013-03-24 10:33:00,
2013-03-24 06:38:00,52.9,52.0,29.58,NNE,15,0.0,6.0,97,0.39,,,0.64,0.0,meteohub,2013-03-24 10:38:00,
2013-03-24 06:43:00,53.1,52.2,29.59,NE,53,1.0,7.0,97,0.42,,,0.71,0.0,meteohub,2013-03-24 10:43:00,
2013-03-24 06:48:00,53.1,52.2,29.64,WNW,301,3.0,7.0,97,0.45,,,0.75,0.0,meteohub,2013-03-24 10:48:00,
2013-03-24 06:53:00,53.1,52.2,29.65,WNW,294,1.0,7.0,97,0.51,,,0.77,0.0,meteohub,2013-03-24 10:53:00,
2013-03-24 06:58:00,52.7,51.8,29.63,NE,40,4.0,6.0,97,0.53,,,0.83,0.0,meteohub,2013-03-24 10:58:00,
2013-03-24 07:03:00,52.5,51.6,29.62,WSW,240,5.0,10.0,97,0.61,,,0.92,0.0,meteohub,2013-03-24 11:03:00,
2013-03-24 07:08:00,52.5,51.6,29.66,NNW,328,2.0,10.0,97,0.70,,,1.03,0.0,meteohub,2013-03-24 11:08:00,
2013-03-24 07:13:00,52.7,51.8,29.66,NNW,333,2.0,10.0,97,0.81,,,1.15,0.0,meteohub,2013-03-24 11:13:00,
2013-03-24 07:18:00,52.3,51.4,29.62,ENE,69,2.0,7.0,97,0.85,,,1.22,0.0,meteohub,2013-03-24 11:18:00,
2013-03-24 07:23:00,52.2,51.3,29.60,NW,312,4.0,6.0,97,0.79,,,1.28,0.0,meteohub,2013-03-24 11:23:00,
2013-03-24 07:28:00,52.0,51.1,29.60,East,99,3.0,10.0,97,0.72,,,1.31,0.0,meteohub,2013-03-24 11:28:00,
2013-03-24 07:33:00,52.0,51.1,29.59,NE,48,3.0,10.0,97,0.70,,,1.32,0.0,meteohub,2013-03-24 11:33:00,
2013-03-24 07:38:00,52.0,51.1,29.59,East,91,5.0,10.0,97,0.65,,,1.33,0.0,meteohub,2013-03-24 11:38:00,
2013-03-24 07:43:00,52.0,51.1,29.60,NE,40,2.0,12.0,97,0.62,,,1.35,0.0,meteohub,2013-03-24 11:43:00,
2013-03-24 07:48:00,52.0,51.1,29.59,NW,321,5.0,12.0,97,0.62,,,1.38,0.0,meteohub,2013-03-24 11:48:00,
2013-03-24 07:53:00,51.8,50.9,29.61,NNW,331,3.0,12.0,97,0.60,,,1.41,0.0,meteohub,2013-03-24 11:53:00,
2013-03-24 07:58:00,51.6,50.7,29.60,WNW,292,2.0,14.0,97,0.58,,,1.43,0.0,meteohub,2013-03-24 11:58:00,
2013-03-24 08:03:00,51.6,50.7,29.60,WNW,285,6.0,14.0,97,0.54,,,1.49,0.0,meteohub,2013-03-24 12:03:00,
2013-03-24 08:08:00,51.6,50.7,29.62,WNW,292,3.0,14.0,97,0.41,,,1.52,0.0,meteohub,2013-03-24 12:08:00,
2013-03-24 08:13:00,51.4,50.5,29.63,NNE,32,3.0,8.0,97,0.40,,,1.57,0.0,meteohub,2013-03-24 12:13:00,
2013-03-24 08:18:00,51.4,50.5,29.63,NW,317,5.0,8.0,97,0.41,,,1.67,0.0,meteohub,2013-03-24 12:18:00,
2013-03-24 08:23:00,51.3,50.4,29.64,NNW,344,2.0,7.0,97,0.42,,,1.71,0.0,meteohub,2013-03-24 12:23:00,
2013-03-24 08:28:00,51.3,50.4,29.63,NW,311,3.0,8.0,97,0.47,,,1.78,0.0,meteohub,2013-03-24 12:28:00,
2013-03-24 08:33:00,51.1,50.2,29.66,NNE,17,1.0,8.0,97,0.53,,,1.85,0.0,meteohub,2013-03-24 12:33:00,
2013-03-24 08:38:00,50.9,50.0,29.66,WSW,244,3.0,8.0,97,0.54,,,1.87,0.0,meteohub,2013-03-24 12:38:00,
2013-03-24 08:43:00,50.7,49.8,29.66,NNE,32,9.0,9.0,97,0.59,,,1.94,0.0,meteohub,2013-03-24 12:43:00,
2013-03-24 08:48:00,50.5,49.6,29.70,West,277,3.0,14.0,97,0.67,,,2.06,0.0,meteohub,2013-03-24 12:48:00,
2013-03-24 08:53:00,50.2,49.3,29.66,NW,323,7.0,14.0,97,0.67,,,2.09,0.0,meteohub,2013-03-24 12:53:00,
2013-03-24 08:58:00,49.8,48.9,29.64,NNE,24,1.0,14.0,97,0.72,,,2.16,0.0,meteohub,2013-03-24 12:58:00,
2013-03-24 09:03:00,49.6,48.7,29.62,NE,34,2.0,7.0,97,0.71,,,2.21,0.0,meteohub,2013-03-24 13:03:00,
2013-03-24 09:08:00,49.6,48.7,29.62,WSW,240,2.0,7.0,97,0.68,,,2.22,0.0,meteohub,2013-03-24 13:08:00,
2013-03-24 09:13:00,49.6,48.7,29.61,NW,315,1.0,8.0,97,0.66,,,2.25,5.0,meteohub,2013-03-24 13:13:00,
2013-03-24 09:18:00,49.8,48.9,29.61,East,84,3.0,9.0,97,0.59,,,2.25,0.0,meteohub,2013-03-24 13:18:00,
2013-03-24 09:23:00,49.8,48.9,29.60,ENE,72,1.0,9.0,97,0.54,,,2.28,5.0,meteohub,2013-03-24 13:23:00,
2013-03-24 09:28:00,50.2,49.3,29.60,North,350,1.0,9.0,97,0.51,,,2.31,0.0,meteohub,2013-03-24 13:28:00,
2013-03-24 09:33:00,50.4,49.5,29.60,North,5,2.0,9.0,97,0.49,,,2.32,0.0,meteohub,2013-03-24 13:33:00,
2013-03-24 09:38:00,50.4,49.5,29.60,ESE,108,0.0,8.0,97,0.45,,,2.35,7.0,meteohub,2013-03-24 13:38:00,
2013-03-24 09:44:00,50.5,49.6,29.60,WNW,300,1.0,12.0,97,0.44,,,2.40,5.0,meteohub,2013-03-24 13:44:00,
2013-03-24 09:49:00,50.7,49.8,29.61,NNW,344,0.0,12.0,97,0.34,,,2.41,0.0,meteohub,2013-03-24 13:49:00,
2013-03-24 09:54:00,50.7,49.8,29.61,NE,44,1.0,12.0,97,0.32,,,2.43,5.0,meteohub,2013-03-24 13:54:00,
2013-03-24 09:59:00,50.7,49.8,29.60,North,5,4.0,6.0,97,0.26,,,2.45,5.0,meteohub,2013-03-24 13:59:00,
2013-03-24 10:04:00,50.9,50.0,29.60,NE,48,3.0,6.0,97,0.26,,,2.47,0.0,meteohub,2013-03-24 14:04:00,
2013-03-24 10:09:00,51.1,50.2,29.59,East,98,2.0,7.0,97,0.26,,,2.49,5.0,meteohub,2013-03-24 14:09:00,
2013-03-24 10:14:00,51.1,50.2,29.61,SE,134,1.0,9.0,97,0.26,,,2.51,5.0,meteohub,2013-03-24 14:14:00,
2013-03-24 10:19:00,51.1,50.2,29.61,NE,53,3.0,9.0,97,0.25,,,2.52,5.0,meteohub,2013-03-24 14:19:00,
2013-03-24 10:24:00,51.3,50.4,29.57,East,98,11.0,11.0,97,0.26,,,2.55,9.0,meteohub,2013-03-24 14:24:00,
2013-03-24 10:29:00,51.3,50.4,29.56,ESE,113,9.0,11.0,97,0.27,,,2.58,12.0,meteohub,2013-03-24 14:29:00,
2013-03-24 10:34:00,51.4,50.5,29.54,ESE,113,7.0,13.0,97,0.25,,,2.59,28.0,meteohub,2013-03-24 14:34:00,
2013-03-24 10:39:00,51.4,50.5,29.54,ESE,105,2.0,13.0,97,0.24,,,2.61,37.0,meteohub,2013-03-24 14:39:00,
2013-03-24 10:44:00,51.6,50.7,29.57,ESE,105,2.0,13.0,97,0.21,,,2.61,30.0,meteohub,2013-03-24 14:44:00,
2013-03-24 10:49:00,52.0,51.1,29.59,SSE,152,0.0,14.0,97,0.19,,,2.61,18.0,meteohub,2013-03-24 14:49:00,
2013-03-24 10:54:00,52.2,51.3,29.58,ENE,78,0.0,14.0,97,0.17,,,2.61,23.0,meteohub,2013-03-24 14:54:00,
2013-03-24 10:59:00,52.2,51.3,29.57,East,93,2.0,14.0,97,0.17,,,2.63,40.0,meteohub,2013-03-24 14:59:00,
2013-03-24 11:04:00,52.2,51.3,29.57,SE,144,3.0,9.0,97,0.16,,,2.64,21.0,meteohub,2013-03-24 15:04:00,
2013-03-24 11:09:00,52.3,51.4,29.55,East,101,2.0,9.0,97,0.15,,,2.65,58.0,meteohub,2013-03-24 15:09:00,
2013-03-24 11:14:00,52.7,51.8,29.54,NNE,20,1.0,9.0,97,0.14,,,2.66,51.0,meteohub,2013-03-24 15:14:00,
2013-03-24 11:19:00,52.9,52.3,29.55,ENE,59,0.0,9.0,98,0.13,,,2.66,32.0,meteohub,2013-03-24 15:19:00,
2013-03-24 11:24:00,53.1,52.2,29.55,SE,138,0.0,6.0,97,0.10,,,2.66,53.0,meteohub,2013-03-24 15:24:00,
2013-03-24 11:29:00,53.2,52.3,29.54,ENE,61,0.0,5.0,97,0.08,,,2.66,67.0,meteohub,2013-03-24 15:29:00,
2013-03-24 11:34:00,53.2,52.3,29.54,South,187,1.0,6.0,97,0.08,,,2.68,100.0,meteohub,2013-03-24 15:34:00,
2013-03-24 11:39:00,53.8,53.2,29.54,ESE,117,1.0,6.0,98,0.09,,,2.70,98.0,meteohub,2013-03-24 15:39:00,
2013-03-24 11:44:00,54.0,53.4,29.52,ESE,103,3.0,8.0,98,0.10,,,2.71,125.0,meteohub,2013-03-24 15:44:00,
2013-03-24 11:49:00,54.1,53.6,29.53,SE,127,3.0,9.0,98,0.10,,,2.71,172.0,meteohub,2013-03-24 15:49:00,
2013-03-24 11:54:00,54.5,54.0,29.52,ESE,119,4.0,9.0,98,0.10,,,2.71,246.0,meteohub,2013-03-24 15:54:00,
2013-03-24 11:59:00,54.9,54.3,29.52,ESE,115,2.0,10.0,98,0.08,,,2.71,179.0,meteohub,2013-03-24 15:59:00,
2013-03-24 12:04:00,55.0,54.5,29.51,SE,136,2.0,10.0,98,0.06,,,2.71,195.0,meteohub,2013-03-24 16:04:00,
2013-03-24 12:09:00,55.4,54.9,29.50,ESE,103,2.0,7.0,98,0.06,,,2.71,352.0,meteohub,2013-03-24 16:09:00,
2013-03-24 12:14:00,56.5,55.9,29.50,ESE,111,0.0,7.0,98,0.05,,,2.71,582.0,meteohub,2013-03-24 16:14:00,
2013-03-24 12:19:00,56.8,56.3,29.50,East,80,2.0,7.0,98,0.05,,,2.71,181.0,meteohub,2013-03-24 16:19:00,
2013-03-24 12:24:00,56.5,55.9,29.50,ENE,76,1.0,7.0,98,0.05,,,2.71,160.0,meteohub,2013-03-24 16:24:00,
2013-03-24 12:29:00,56.8,56.3,29.50,SE,140,1.0,7.0,98,0.04,,,2.71,229.0,meteohub,2013-03-24 16:29:00,
2013-03-24 12:34:00,57.4,56.8,29.50,SE,143,2.0,6.0,98,0.02,,,2.71,316.0,meteohub,2013-03-24 16:34:00,
2013-03-24 12:39:00,57.7,57.2,29.50,SE,132,2.0,6.0,98,0.00,,,2.71,295.0,meteohub,2013-03-24 16:39:00,
2013-03-24 12:44:00,58.1,57.2,29.50,ENE,63,4.0,6.0,97,0.00,,,2.71,193.0,meteohub,2013-03-24 16:44:00,
2013-03-24 12:49:00,58.1,57.2,29.50,SE,134,3.0,6.0,97,0.00,,,2.71,141.0,meteohub,2013-03-24 16:49:00,
2013-03-24 12:54:00,58.3,57.4,29.49,ESE,110,8.0,8.0,97,0.00,,,2.71,292.0,meteohub,2013-03-24 16:54:00,
2013-03-24 12:59:00,58.6,57.7,29.48,SE,126,1.0,8.0,97,0.00,,,2.71,123.0,meteohub,2013-03-24 16:59:00,
2013-03-24 13:05:00,58.8,57.9,29.48,SE,130,2.0,8.0,97,0.00,,,2.71,149.0,meteohub,2013-03-24 17:05:00,
2013-03-24 13:10:00,58.8,57.9,29.48,ESE,107,5.0,8.0,97,0.00,,,2.71,127.0,meteohub,2013-03-24 17:10:00,
2013-03-24 13:15:00,59.2,58.3,29.48,SE,135,1.0,6.0,97,0.00,,,2.71,120.0,meteohub,2013-03-24 17:15:00,
2013-03-24 13:20:00,59.4,58.5,29.47,East,98,2.0,6.0,97,0.00,,,2.71,35.0,meteohub,2013-03-24 17:20:00,
2013-03-24 13:25:00,59.4,58.5,29.48,East,98,0.0,6.0,97,0.00,,,2.71,37.0,meteohub,2013-03-24 17:25:00,
2013-03-24 13:30:00,59.4,58.5,29.48,WSW,248,2.0,4.0,97,0.02,,,2.73,33.0,meteohub,2013-03-24 17:30:00,
2013-03-24 13:35:00,59.4,58.5,29.47,WSW,248,1.0,4.0,97,0.03,,,2.74,70.0,meteohub,2013-03-24 17:35:00,
2013-03-24 13:40:00,59.5,58.6,29.47,SE,130,0.0,2.0,97,0.04,,,2.75,113.0,meteohub,2013-03-24 17:40:00,
2013-03-24 13:45:00,59.5,58.6,29.46,East,98,0.0,2.0,97,0.04,,,2.75,98.0,meteohub,2013-03-24 17:45:00,
2013-03-24 13:50:00,59.7,58.8,29.47,East,100,0.0,3.0,97,0.04,,,2.75,49.0,meteohub,2013-03-24 17:50:00,
2013-03-24 13:55:00,59.7,58.8,29.48,NW,319,0.0,3.0,97,0.04,,,2.75,40.0,meteohub,2013-03-24 17:55:00,
2013-03-24 14:00:00,59.5,58.6,29.49,WNW,295,2.0,5.0,97,0.04,,,2.75,46.0,meteohub,2013-03-24 18:00:00,
2013-03-24 14:05:00,59.5,58.6,29.47,North,350,0.0,5.0,97,0.04,,,2.75,125.0,meteohub,2013-03-24 18:05:00,
2013-03-24 14:10:00,59.4,58.5,29.47,ENE,65,2.0,5.0,97,0.04,,,2.75,141.0,meteohub,2013-03-24 18:10:00,
2013-03-24 14:15:00,59.4,58.5,29.46,NW,307,1.0,3.0,97,0.04,,,2.76,121.0,meteohub,2013-03-24 18:15:00,
2013-03-24 14:20:00,59.4,58.5,29.46,WNW,284,0.0,3.0,97,0.05,,,2.76,105.0,meteohub,2013-03-24 18:20:00,
2013-03-24 14:25:00,59.5,58.6,29.47,NW,307,2.0,3.0,97,0.05,,,2.76,83.0,meteohub,2013-03-24 18:25:00,
2013-03-24 14:30:00,59.5,58.6,29.45,NNW,348,0.0,3.0,97,0.03,,,2.76,127.0,meteohub,2013-03-24 18:30:00,
2013-03-24 14:35:00,59.5,58.6,29.47,WNW,286,1.0,3.0,97,0.02,,,2.76,86.0,meteohub,2013-03-24 18:35:00,
2013-03-24 14:40:00,59.4,58.5,29.46,WNW,286,3.0,3.0,97,0.01,,,2.76,114.0,meteohub,2013-03-24 18:40:00,
2013-03-24 14:45:00,59.4,58.5,29.47,WNW,290,1.0,5.0,97,0.01,,,2.76,105.0,meteohub,2013-03-24 18:45:00,
2013-03-24 14:50:00,59.7,58.8,29.46,WNW,290,0.0,6.0,97,0.01,,,2.76,105.0,meteohub,2013-03-24 18:50:00,
2013-03-24 14:55:00,59.5,58.6,29.46,NW,304,2.0,6.0,97,0.01,,,2.76,102.0,meteohub,2013-03-24 18:55:00,
2013-03-24 15:00:00,59.4,58.5,29.47,WNW,300,2.0,4.0,97,0.01,,,2.76,74.0,meteohub,2013-03-24 19:00:00,
2013-03-24 15:05:00,59.2,58.3,29.47,NW,325,2.0,4.0,97,0.01,,,2.76,86.0,meteohub,2013-03-24 19:05:00,
2013-03-24 15:10:00,58.6,57.7,29.47,NW,304,3.0,4.0,97,0.00,,,2.76,98.0,meteohub,2013-03-24 19:10:00,
2013-03-24 15:15:00,58.3,57.4,29.47,WNW,293,1.0,6.0,97,0.00,,,2.76,100.0,meteohub,2013-03-24 19:15:00,
2013-03-24 15:20:00,58.1,57.2,29.47,West,261,5.0,6.0,97,0.00,,,2.76,98.0,meteohub,2013-03-24 19:20:00,
2013-03-24 15:25:00,57.9,57.0,29.48,WNW,287,1.0,6.0,97,0.00,,,2.76,76.0,meteohub,2013-03-24 19:25:00,
2013-03-24 15:30:00,57.7,56.8,29.48,West,271,3.0,6.0,97,0.00,,,2.76,79.0,meteohub,2013-03-24 19:30:00,
2013-03-24 15:35:00,57.4,56.5,29.48,WSW,257,5.0,8.0,97,0.00,,,2.76,74.0,meteohub,2013-03-24 19:35:00,
2013-03-24 15:40:00,56.8,55.9,29.48,NW,307,1.0,8.0,97,0.00,,,2.76,88.0,meteohub,2013-03-24 19:40:00,
2013-03-24 15:45:00,56.1,55.0,29.48,NW,307,2.0,8.0,96,0.00,,,2.76,83.0,meteohub,2013-03-24 19:45:00,
2013-03-24 15:50:00,55.8,54.7,29.48,WSW,244,4.0,9.0,96,0.00,,,2.76,88.0,meteohub,2013-03-24 19:50:00,
2013-03-24 15:55:00,55.0,54.0,29.48,WNW,295,4.0,9.0,96,0.00,,,2.76,93.0,meteohub,2013-03-24 19:55:00,
2013-03-24 16:00:00,54.9,54.0,29.47,WSW,254,3.0,10.0,97,0.00,,,2.76,98.0,meteohub,2013-03-24 20:00:00,
2013-03-24 16:05:00,54.5,53.4,29.48,WNW,289,2.0,10.0,96,0.00,,,2.76,77.0,meteohub,2013-03-24 20:05:00,
2013-03-24 16:10:00,54.1,53.1,29.48,WNW,296,3.0,7.0,96,0.00,,,2.76,88.0,meteohub,2013-03-24 20:10:00,
2013-03-24 16:15:00,53.8,52.7,29.48,WNW,284,2.0,7.0,96,0.00,,,2.76,70.0,meteohub,2013-03-24 20:15:00,
2013-03-24 16:20:00,53.6,52.5,29.48,WNW,292,1.0,7.0,96,0.00,,,2.76,62.0,meteohub,2013-03-24 20:20:00,
2013-03-24 16:25:00,53.2,52.2,29.49,WNW,298,4.0,7.0,96,0.00,,,2.76,62.0,meteohub,2013-03-24 20:25:00,
2013-03-24 16:30:00,53.1,52.2,29.48,NNW,331,3.0,7.0,97,0.00,,,2.76,93.0,meteohub,2013-03-24 20:30:00,
2013-03-24 16:36:00,53.1,52.2,29.48,WNW,296,3.0,8.0,97,0.00,,,2.76,90.0,meteohub,2013-03-24 20:36:00,
2013-03-24 16:41:00,52.9,52.0,29.48,WNW,296,4.0,8.0,97,0.00,,,2.76,102.0,meteohub,2013-03-24 20:41:00,
2013-03-24 16:46:00,52.7,51.6,29.49,West,260,4.0,8.0,96,0.00,,,2.76,125.0,meteohub,2013-03-24 20:46:00,
2013-03-24 16:51:00,52.5,51.6,29.49,SW,230,3.0,6.0,97,0.00,,,2.76,100.0,meteohub,2013-03-24 20:51:00,
2013-03-24 16:56:00,52.3,51.3,29.49,North,5,1.0,6.0,96,0.00,,,2.76,77.0,meteohub,2013-03-24 20:56:00,
2013-03-24 17:02:00,52.3,51.3,29.50,NW,310,4.0,6.0,96,0.00,,,2.76,67.0,meteohub,2013-03-24 21:02:00,
2013-03-24 17:07:00,52.2,51.1,29.50,West,265,0.0,6.0,96,0.00,,,2.76,67.0,meteohub,2013-03-24 21:07:00,
2013-03-24 17:12:00,52.0,50.9,29.51,WNW,303,4.0,6.0,96,0.00,,,2.76,58.0,meteohub,2013-03-24 21:12:00,
2013-03-24 17:17:00,52.0,50.9,29.50,NW,304,4.0,6.0,96,0.00,,,2.76,54.0,meteohub,2013-03-24 21:17:00,
2013-03-24 17:22:00,51.8,50.7,29.51,West,273,4.0,7.0,96,0.00,,,2.76,49.0,meteohub,2013-03-24 21:22:00,
2013-03-24 17:27:00,51.8,50.7,29.51,WNW,299,1.0,7.0,96,0.00,,,2.76,65.0,meteohub,2013-03-24 21:27:00,
2013-03-24 17:32:00,51.6,50.5,29.52,NNW,329,1.0,7.0,96,0.00,,,2.76,47.0,meteohub,2013-03-24 21:32:00,
2013-03-24 17:37:00,51.4,50.4,29.52,NW,315,2.0,5.0,96,0.00,,,2.76,46.0,meteohub,2013-03-24 21:37:00,
2013-03-24 17:42:00,51.3,50.2,29.52,NNW,340,3.0,5.0,96,0.00,,,2.76,49.0,meteohub,2013-03-24 21:42:00,
2013-03-24 17:47:00,51.1,49.6,29.52,WNW,292,1.0,9.0,95,0.00,,,2.76,40.0,meteohub,2013-03-24 21:47:00,
2013-03-24 17:52:00,50.9,49.8,29.53,SW,228,1.0,9.0,96,0.00,,,2.76,35.0,meteohub,2013-03-24 21:52:00,
2013-03-24 17:57:00,50.7,49.6,29.53,WSW,254,0.0,9.0,96,0.00,,,2.76,32.0,meteohub,2013-03-24 21:57:00,
2013-03-24 18:02:00,50.7,49.6,29.53,WNW,292,2.0,5.0,96,0.00,,,2.76,28.0,meteohub,2013-03-24 22:02:00,
2013-03-24 18:07:00,50.5,49.5,29.54,West,262,1.0,4.0,96,0.00,,,2.76,28.0,meteohub,2013-03-24 22:07:00,
2013-03-24 18:12:00,50.4,49.3,29.54,WNW,292,0.0,5.0,96,0.00,,,2.76,21.0,meteohub,2013-03-24 22:12:00,
2013-03-24 18:17:00,50.4,49.3,29.54,NNW,336,3.0,5.0,96,0.00,,,2.76,23.0,meteohub,2013-03-24 22:17:00,
2013-03-24 18:22:00,50.0,48.9,29.55,WNW,298,3.0,6.0,96,0.00,,,2.76,25.0,meteohub,2013-03-24 22:22:00,
2013-03-24 18:27:00,49.8,48.7,29.55,NNW,332,2.0,6.0,96,0.00,,,2.76,18.0,meteohub,2013-03-24 22:27:00,
2013-03-24 18:32:00,49.6,48.6,29.55,NW,312,2.0,6.0,96,0.00,,,2.76,19.0,meteohub,2013-03-24 22:32:00,
2013-03-24 18:37:00,49.5,48.4,29.55,North,355,2.0,8.0,96,0.00,,,2.76,16.0,meteohub,2013-03-24 22:37:00,
2013-03-24 18:42:00,49.5,48.4,29.55,NW,309,2.0,8.0,96,0.00,,,2.76,14.0,meteohub,2013-03-24 22:42:00,
2013-03-24 18:47:00,49.5,48.4,29.55,NNW,331,1.0,8.0,96,0.00,,,2.76,14.0,meteohub,2013-03-24 22:47:00,
2013-03-24 18:52:00,49.3,48.2,29.55,NNW,334,2.0,6.0,96,0.00,,,2.76,11.0,meteohub,2013-03-24 22:52:00,
2013-03-24 18:57:00,49.1,48.0,29.55,NW,306,2.0,5.0,96,0.00,,,2.76,9.0,meteohub,2013-03-24 22:57:00,
2013-03-24 19:02:00,48.7,47.7,29.55,WNW,303,3.0,3.0,96,0.00,,,2.76,7.0,meteohub,2013-03-24 23:02:00,
2013-03-24 19:07:00,48.6,47.5,29.56,WNW,298,1.0,6.0,96,0.00,,,2.76,9.0,meteohub,2013-03-24 23:07:00,
2013-03-24 19:12:00,48.6,47.5,29.56,WNW,290,2.0,6.0,96,0.00,,,2.76,5.0,meteohub,2013-03-24 23:12:00,
2013-03-24 19:17:00,48.6,47.5,29.56,WSW,254,2.0,5.0,96,0.00,,,2.76,5.0,meteohub,2013-03-24 23:17:00,
2013-03-24 19:22:00,48.4,47.3,29.56,NNW,336,2.0,4.0,96,0.00,,,2.76,0.0,meteohub,2013-03-24 23:22:00,
2013-03-24 19:27:00,48.4,47.3,29.56,West,280,2.0,4.0,96,0.00,,,2.76,0.0,meteohub,2013-03-24 23:27:00,
2013-03-24 19:32:00,48.4,47.3,29.56,WNW,301,0.0,4.0,96,0.00,,,2.76,0.0,meteohub,2013-03-24 23:32:00,
2013-03-24 19:37:00,48.4,47.3,29.57,NNW,342,1.0,4.0,96,0.00,,,2.76,0.0,meteohub,2013-03-24 23:37:00,
2013-03-24 19:42:00,48.0,46.9,29.57,NW,322,1.0,8.0,96,0.00,,,2.76,0.0,meteohub,2013-03-24 23:42:00,
2013-03-24 19:47:00,47.8,46.8,29.57,NW,313,2.0,8.0,96,0.00,,,2.76,0.0,meteohub,2013-03-24 23:47:00,
2013-03-24 19:52:00,47.8,46.8,29.57,North,9,2.0,8.0,96,0.00,,,2.76,0.0,meteohub,2013-03-24 23:52:00,
2013-03-24 19:57:00,47.7,46.6,29.57,NW,326,0.0,6.0,96,0.00,,,2.76,0.0,meteohub,2013-03-24 23:57:00,
2013-03-24 20:02:00,47.7,46.6,29.57,NW,322,3.0,6.0,96,0.00,,,2.76,0.0,meteohub,2013-03-25 00:02:00,
2013-03-24 20:07:00,47.7,46.6,29.58,NW,321,1.0,5.0,96,0.00,,,2.76,0.0,meteohub,2013-03-25 00:07:00,
2013-03-24 20:12:00,47.5,46.4,29.58,NW,324,1.0,5.0,96,0.00,,,2.76,0.0,meteohub,2013-03-25 00:12:00,
2013-03-24 20:17:00,47.5,46.4,29.59,WNW,294,0.0,5.0,96,0.00,,,2.76,0.0,meteohub,2013-03-25 00:17:00,
2013-03-24 20:23:00,47.5,46.4,29.59,WNW,298,4.0,7.0,96,0.00,,,2.76,0.0,meteohub,2013-03-25 00:23:00,
2013-03-24 20:28:00,47.5,46.4,29.58,West,260,2.0,7.0,96,0.00,,,2.76,0.0,meteohub,2013-03-25 00:28:00,
2013-03-24 20:33:00,47.5,46.4,29.58,North,10,2.0,5.0,96,0.00,,,2.76,0.0,meteohub,2013-03-25 00:33:00,
2013-03-24 20:38:00,47.5,46.4,29.59,WNW,292,3.0,5.0,96,0.00,,,2.76,0.0,meteohub,2013-03-25 00:38:00,
2013-03-24 20:43:00,47.5,46.4,29.59,WNW,298,2.0,5.0,96,0.00,,,2.76,0.0,meteohub,2013-03-25 00:43:00,
2013-03-24 20:48:00,47.3,46.2,29.60,NW,311,4.0,6.0,96,0.00,,,2.76,0.0,meteohub,2013-03-25 00:48:00,
2013-03-24 20:53:00,47.3,46.2,29.60,West,276,3.0,6.0,96,0.00,,,2.76,0.0,meteohub,2013-03-25 00:53:00,
2013-03-24 20:58:00,47.1,46.0,29.60,WNW,297,3.0,5.0,96,0.00,,,2.76,0.0,meteohub,2013-03-25 00:58:00,
2013-03-24 21:03:00,47.1,46.0,29.60,West,280,3.0,5.0,96,0.00,,,2.76,0.0,meteohub,2013-03-25 01:03:00,
2013-03-24 21:08:00,47.1,46.0,29.60,NNW,348,2.0,5.0,96,0.00,,,2.76,0.0,meteohub,2013-03-25 01:08:00,
2013-03-24 21:13:00,47.1,46.0,29.60,WNW,293,3.0,5.0,96,0.00,,,2.76,0.0,meteohub,2013-03-25 01:13:00,
2013-03-24 21:18:00,47.1,46.0,29.60,WNW,289,2.0,4.0,96,0.00,,,2.76,0.0,meteohub,2013-03-25 01:18:00,
2013-03-24 21:23:00,47.1,46.0,29.60,West,280,3.0,4.0,96,0.00,,,2.76,0.0,meteohub,2013-03-25 01:23:00,
2013-03-24 21:28:00,47.1,46.0,29.61,NE,49,2.0,5.0,96,0.00,,,2.76,0.0,meteohub,2013-03-25 01:28:00,
2013-03-24 21:33:00,47.1,46.0,29.61,WNW,295,6.0,6.0,96,0.00,,,2.76,0.0,meteohub,2013-03-25 01:33:00,
2013-03-24 21:38:00,46.9,45.9,29.61,WNW,297,2.0,4.0,96,0.00,,,2.76,0.0,meteohub,2013-03-25 01:38:00,
2013-03-24 21:43:00,46.9,45.9,29.61,West,259,1.0,7.0,96,0.00,,,2.76,0.0,meteohub,2013-03-25 01:43:00,
2013-03-24 21:48:00,46.9,45.9,29.60,NNW,340,1.0,7.0,96,0.00,,,2.76,0.0,meteohub,2013-03-25 01:48:00,
2013-03-24 21:53:00,46.9,45.9,29.60,WNW,288,1.0,5.0,96,0.00,,,2.76,0.0,meteohub,2013-03-25 01:53:00,
2013-03-24 21:58:00,46.9,45.9,29.60,WNW,302,0.0,4.0,96,0.00,,,2.76,0.0,meteohub,2013-03-25 01:58:00,
2013-03-24 22:03:00,46.9,45.9,29.59,NW,307,2.0,3.0,96,0.00,,,2.76,0.0,meteohub,2013-03-25 02:03:00,
2013-03-24 22:08:00,46.8,45.7,29.58,NW,314,2.0,3.0,96,0.00,,,2.76,0.0,meteohub,2013-03-25 02:08:00,
2013-03-24 22:13:00,46.8,45.7,29.57,NNW,338,0.0,3.0,96,0.00,,,2.76,0.0,meteohub,2013-03-25 02:13:00,
2013-03-24 22:18:00,46.6,45.5,29.57,NNW,335,1.0,4.0,96,0.00,,,2.76,0.0,meteohub,2013-03-25 02:18:00,
2013-03-24 22:23:00,46.4,45.0,29.57,North,5,0.0,4.0,95,0.00,,,2.76,0.0,meteohub,2013-03-25 02:23:00,
2013-03-24 22:28:00,46.6,45.5,29.57,North,5,0.0,4.0,96,0.00,,,2.76,0.0,meteohub,2013-03-25 02:28:00,
2013-03-24 22:33:00,46.4,45.3,29.56,North,355,0.0,3.0,96,0.00,,,2.76,0.0,meteohub,2013-03-25 02:33:00,
2013-03-24 22:38:00,46.4,45.3,29.57,NNW,343,2.0,3.0,96,0.00,,,2.76,0.0,meteohub,2013-03-25 02:38:00,
2013-03-24 22:43:00,46.2,45.1,29.56,NNE,29,1.0,6.0,96,0.00,,,2.76,0.0,meteohub,2013-03-25 02:43:00,
2013-03-24 22:49:00,46.2,45.1,29.57,NNE,29,0.0,6.0,96,0.00,,,2.76,0.0,meteohub,2013-03-25 02:49:00,
2013-03-24 22:53:00,46.2,45.1,29.56,NNE,27,2.0,6.0,96,0.00,,,2.76,0.0,meteohub,2013-03-25 02:53:00,
2013-03-24 22:58:00,46.0,45.0,29.56,NNW,333,2.0,2.0,96,0.00,,,2.76,0.0,meteohub,2013-03-25 02:58:00,
2013-03-24 23:04:00,46.0,45.0,29.56,WNW,297,0.0,4.0,96,0.00,,,2.76,0.0,meteohub,2013-03-25 03:04:00,
2013-03-24 23:09:00,45.9,44.4,29.55,NW,324,2.0,4.0,95,0.00,,,2.76,0.0,meteohub,2013-03-25 03:09:00,
2013-03-24 23:14:00,45.9,44.4,29.55,NW,324,0.0,5.0,95,0.00,,,2.76,0.0,meteohub,2013-03-25 03:14:00,
2013-03-24 23:19:00,45.9,44.8,29.56,NNE,28,1.0,5.0,96,0.00,,,2.76,0.0,meteohub,2013-03-25 03:19:00,
2013-03-24 23:24:00,45.9,44.8,29.56,NNE,28,0.0,3.0,96,0.00,,,2.76,0.0,meteohub,2013-03-25 03:24:00,
2013-03-24 23:29:00,46.0,45.0,29.56,North,355,0.0,3.0,96,0.00,,,2.76,0.0,meteohub,2013-03-25 03:29:00,
2013-03-24 23:34:00,46.2,45.1,29.56,North,355,1.0,5.0,96,0.00,,,2.76,0.0,meteohub,2013-03-25 03:34:00,
2013-03-24 23:39:00,46.2,45.1,29.56,NNE,12,1.0,5.0,96,0.00,,,2.76,0.0,meteohub,2013-03-25 03:39:00,
2013-03-24 23:44:00,46.4,45.3,29.56,NNE,12,0.0,4.0,96,0.00,,,2.76,0.0,meteohub,2013-03-25 03:44:00,
2013-03-24 23:49:00,46.4,45.3,29.56,NNE,12,1.0,2.0,96,0.00,,,2.76,0.0,meteohub,2013-03-25 03:49:00,
2013-03-24 23:54:00,46.2,45.1,29.56,NNE,27,0.0,2.0,96,0.00,,,2.76,0.0,meteohub,2013-03-25 03:54:00,
2013-03-24 23:59:00,46.2,45.1,29.57,NNE,27,0.0,3.0,96,0.00,,,2.76,0.0,meteohub,2013-03-25 03:59:00,